• Join FlightAware (Why Join?)
  • Login
  • US Flag 
01:33AM EDT


 

Airport Tracker/Info


-or-


 

Live Flight TrackerFlight Track Log ✈ SWA2166 ✈ 08-Apr-2013 ✈ KPVD - KMCO

Flight Track Log - Related Links

Times and Time Zones

All times are in EDT time to prevent confusion due to time zone crossing. See the SWA2166 flight status page for this flight to view local times or setup timezone preferences in your user account.

Time Position Orientation Groundspeed Altitude Reporting Facility
EDT Latitude Longitude Course Direction KTS MPH feet Rate Location/Type
01:27PM 41.7311 -71.4247 59° Northeast 165 190 500  Level Boston Center
01:28PM 41.7472 -71.3883 59° Northeast 184 212 1,800 2,460 Climbing Boston Center
01:29PM 41.7656 -71.3267 68° East 229 264 3,800 2,520 Climbing Boston Center
01:29PM 41.7444 -71.2911 129° Southeast 264 304 4,900 2,460 Climbing Boston Center
01:30PM 41.7211 -71.2636 139° Southeast 321 369 6,200 3,300 Climbing Boston Center
01:31PM 41.6433 -71.2122 154° Southeast 308 354 9,800 3,000 Climbing Boston Center
01:32PM 41.5686 -71.2219 186° South 293 337 12,200 3,000 Climbing Boston Center
01:33PM 41.4747 -71.2267 182° South 308 354 15,900 3,180 Climbing Boston Center
01:34PM 41.3853 -71.2339 183° South 327 376 18,700 2,280 Climbing Boston Center
01:35PM 41.2978 -71.2436 185° South 337 388 20,600 1,620 Climbing Boston Center
01:36PM 41.1833 -71.2625 187° South 376 433 22,000 1,920 Climbing Boston Center
01:37PM 41.1136 -71.3683 229° Southwest 364 419 24,400 1,980 Climbing Boston Center
01:38PM 41.0500 -71.4906 235° Southwest 370 426 26,100 1,620 Climbing Boston Center
01:39PM 40.9803 -71.6208 235° Southwest 408 470 27,800 1,860 Climbing Boston Center
01:40PM 40.9125 -71.7536 236° Southwest 435 501 29,900 2,280 Climbing Boston Center
01:41PM 40.8486 -71.8831 237° Southwest 442 509 32,400 2,100 Climbing Boston Center
01:42PM 40.7700 -72.0153 232° Southwest 434 499 34,100 1,740 Climbing Boston Center
01:43PM 40.6953 -72.1389 231° Southwest 434 499 36,300 1,740 Climbing Boston Center
01:44PM 40.6206 -72.2814 235° Southwest 420 483 38,000 840 Climbing Boston Center
01:45PM 40.5622 -72.3964 236° Southwest 405 466 38,000  Level Boston Center
01:46PM 40.4997 -72.5083 234° Southwest 399 459 38,000  Level Boston Center
01:47PM 40.4372 -72.6228 234° Southwest 399 459 38,000 300 Level Boston Center
01:48PM 40.3786 -72.7397 237° Southwest 399 459 38,700 720 Climbing Boston Center
01:49PM 40.3136 -72.8539 233° Southwest 394 453 39,500 360 Climbing Boston Center
01:51PM 40.1733 -73.1156 235° Southwest 388 447 40,000 120 Climbing Washington Center
01:52PM 40.1111 -73.2317 235° Southwest 393 452 40,000  Level Washington Center
01:53PM 40.0317 -73.3317 224° Southwest 393 452 40,000  Level Washington Center
01:54PM 39.9461 -73.4264 220° Southwest 399 459 40,000  Level Washington Center
01:55PM 39.8622 -73.5156 219° Southwest 399 459 40,000  Level Washington Center
01:56PM 39.7803 -73.6097 221° Southwest 399 459 40,000  Level Washington Center
01:57PM 39.6922 -73.6983 218° Southwest 399 459 40,000  Level Washington Center
01:58PM 39.6061 -73.7817 217° Southwest 399 459 40,000  Level Washington Center
01:59PM 39.5175 -73.8644 216° Southwest 399 459 40,000  Level Washington Center
02:00PM 39.4272 -73.9500 216° Southwest 399 459 40,000  Level Washington Center
02:01PM 39.3344 -74.0381 216° Southwest 404 465 40,000  Level Washington Center
02:02PM 39.2461 -74.1228 217° Southwest 404 465 40,000  Level Washington Center
02:03PM 39.1553 -74.2106 217° Southwest 404 465 40,000  Level Washington Center
02:04PM 39.0625 -74.2950 215° Southwest 404 465 40,000  Level Washington Center
02:05PM 38.9739 -74.3822 217° Southwest 404 465 40,000  Level Washington Center
02:06PM 38.8808 -74.4664 215° Southwest 404 465 40,000  Level Washington Center
02:07PM 38.7919 -74.5503 216° Southwest 409 471 40,000  Level Washington Center
02:08PM 38.7008 -74.6339 216° Southwest 403 464 40,000  Level Washington Center
02:09PM 38.6097 -74.7203 217° Southwest 409 471 40,000  Level Washington Center
02:10PM 38.5186 -74.8036 216° Southwest 409 471 40,000  Level Washington Center
02:11PM 38.4253 -74.8894 216° Southwest 409 471 40,000  Level Washington Center
02:12PM 38.3342 -74.9750 216° Southwest 409 471 40,000  Level Washington Center
02:13PM 38.2531 -75.0497 216° Southwest 409 471 40,000  Level Washington Center
02:14PM 38.1617 -75.1350 216° Southwest 409 471 40,000  Level Washington Center
02:15PM 38.0725 -75.2197 217° Southwest 409 471 40,000  Level Washington Center
02:16PM 37.9789 -75.3047 216° Southwest 409 471 40,000  Level Washington Center
02:17PM 37.8850 -75.3839 214° Southwest 409 471 40,000  Level Washington Center
02:18PM 37.7956 -75.4683 217° Southwest 404 465 40,000  Level Washington Center
02:19PM 37.7039 -75.5497 215° Southwest 404 465 40,000  Level Washington Center
02:20PM 37.5997 -75.6389 214° Southwest 409 471 40,000  Level Washington Center
02:21PM 37.5056 -75.7228 215° Southwest 409 471 40,000  Level Washington Center
02:22PM 37.4139 -75.8089 217° Southwest 409 471 40,000  Level Washington Center
02:23PM 37.3219 -75.8894 215° Southwest 409 471 40,000  Level Washington Center
02:24PM 37.2278 -75.9728 215° Southwest 409 471 40,000  Level Washington Center
02:25PM 37.1314 -76.0583 215° Southwest 414 476 40,000  Level Washington Center
02:26PM 37.0372 -76.1408 215° Southwest 414 476 40,000  Level Washington Center
02:27PM 36.9472 -76.2131 213° Southwest 420 483 40,000  Level Washington Center
02:28PM 36.8508 -76.2928 214° Southwest 420 483 40,000  Level Washington Center
02:29PM 36.7586 -76.3747 215° Southwest 420 483 40,000  Level Washington Center
02:30PM 36.6536 -76.4697 216° Southwest 420 483 40,000  Level Washington Center
02:31PM 36.5592 -76.5539 216° Southwest 426 490 40,000  Level Washington Center
02:32PM 36.4644 -76.6328 214° Southwest 426 490 40,000  Level Washington Center
02:33PM 36.3656 -76.7167 214° Southwest 426 490 40,000  Level Washington Center
02:34PM 36.2711 -76.7978 215° Southwest 426 490 40,000  Level Washington Center
02:35PM 36.1742 -76.8786 214° Southwest 426 490 40,000  Level Washington Center
02:36PM 36.0772 -76.9619 215° Southwest 426 490 40,000  Level Washington Center
02:37PM 35.9825 -77.0422 214° Southwest 426 490 40,000  Level Washington Center
02:38PM 35.8917 -77.1356 220° Southwest 426 490 40,000  Level Washington Center
02:39PM 35.8194 -77.2186 223° Southwest 412 474 40,000  Level Washington Center
02:40PM 35.7264 -77.3064 217° Southwest 412 474 40,000  Level Washington Center
02:41PM 35.6375 -77.3964 219° Southwest 412 474 40,000  Level Washington Center
02:42PM 35.5486 -77.4864 219° Southwest 417 480 40,000  Level Washington Center
02:43PM 35.4594 -77.5733 218° Southwest 417 480 40,000  Level Washington Center
02:44PM 35.3703 -77.6656 220° Southwest 417 480 40,000  Level Washington Center
02:45PM 35.2792 -77.7522 218° Southwest 417 480 40,000  Level Washington Center
02:46PM 35.1897 -77.8414 219° Southwest 423 487 40,000  Level Washington Center
02:47PM 35.1006 -77.9275 218° Southwest 423 487 40,000  Level Washington Center
02:48PM 35.0111 -78.0189 220° Southwest 423 487 40,000  Level Washington Center
02:49PM 34.9194 -78.1072 218° Southwest 423 487 40,000  Level Washington Center
02:51PM 34.7192 -78.3108 220° Southwest 424 488 40,000  Level Jacksonville Center
02:52PM 34.6303 -78.3964 218° Southwest 419 482 40,000  Level Jacksonville Center
02:53PM 34.5475 -78.4689 216° Southwest 414 476 40,000  Level Jacksonville Center
02:54PM 34.4569 -78.5664 222° Southwest 414 476 40,000  Level Jacksonville Center
02:55PM 34.3642 -78.6567 219° Southwest 419 482 40,000  Level Jacksonville Center
02:56PM 34.2731 -78.7417 218° Southwest 419 482 40,000  Level Jacksonville Center
02:57PM 34.1881 -78.8258 219° Southwest 419 482 40,000  Level Jacksonville Center
02:58PM 34.0928 -78.9131 217° Southwest 419 482 40,000  Level Jacksonville Center
02:59PM 34.0017 -79.0000 218° Southwest 419 482 40,000  Level Jacksonville Center
03:00PM 33.9125 -79.0839 218° Southwest 424 488 40,000  Level Jacksonville Center
03:01PM 33.8192 -79.1731 218° Southwest 424 488 40,000  Level Jacksonville Center
03:02PM 33.7297 -79.2592 219° Southwest 424 488 40,000  Level Jacksonville Center
03:03PM 33.6403 -79.3400 217° Southwest 419 482 40,000  Level Jacksonville Center
03:04PM 33.5489 -79.4261 218° Southwest 419 482 40,000  Level Jacksonville Center
03:05PM 33.4614 -79.5117 219° Southwest 419 482 40,000  Level Jacksonville Center
03:06PM 33.3717 -79.5947 218° Southwest 419 482 40,000  Level Jacksonville Center
03:07PM 33.2842 -79.6775 218° Southwest 413 475 40,000  Level Jacksonville Center
03:08PM 33.1944 -79.7600 218° Southwest 413 475 40,000  Level Jacksonville Center
03:09PM 33.1047 -79.8425 218° Southwest 413 475 40,000  Level Jacksonville Center
03:10PM 33.0147 -79.9247 217° Southwest 413 475 40,000  Level Jacksonville Center
03:11PM 32.9250 -80.0094 218° Southwest 413 475 40,000  Level Jacksonville Center
03:12PM 32.8264 -80.0842 212° Southwest 418 481 40,000  Level Jacksonville Center
03:13PM 32.7278 -80.1589 213° Southwest 424 488 40,000  Level Jacksonville Center
03:14PM 32.6272 -80.2336 212° Southwest 424 488 40,000  Level Jacksonville Center
03:15PM 32.5386 -80.3003 212° Southwest 429 494 40,000  Level Jacksonville Center
03:16PM 32.4419 -80.3719 212° Southwest 423 487 40,000  Level Jacksonville Center
03:17PM 32.3433 -80.4433 211° Southwest 423 487 40,000  Level Jacksonville Center
03:18PM 32.2444 -80.5150 212° Southwest 423 487 40,000  Level Jacksonville Center
03:19PM 32.1372 -80.5936 212° Southwest 423 487 40,000  Level Jacksonville Center
03:20PM 32.0406 -80.6647 212° Southwest 417 480 40,000  Level Jacksonville Center
03:21PM 31.9519 -80.7306 212° Southwest 417 480 40,000  Level Jacksonville Center
03:22PM 31.8425 -80.8089 211° Southwest 427 491 40,000  Level Jacksonville Center
03:23PM 31.7433 -80.8794 211° Southwest 422 486 40,000  Level Jacksonville Center
03:24PM 31.6525 -80.9425 211° Southwest 422 486 40,000  Level Jacksonville Center
03:25PM 31.5367 -81.0083 206° Southwest 422 486 40,000  Level Jacksonville Center
03:26PM 31.4242 -81.0253 187° South 440 506 40,000  Level Jacksonville Center
03:27PM 31.2889 -81.0497 189° South 457 526 40,000  Level Jacksonville Center
03:28PM 31.1658 -81.0619 185° South 451 519 40,000  Level Jacksonville Center
03:29PM 31.0428 -81.0667 182° South 456 525 40,000 -120 Level Jacksonville Center
03:30PM 30.9175 -81.0692 181° South 456 525 39,800 -1,320 Descending Jacksonville Center
03:31PM 30.7983 -81.0714 181° South 444 511 37,500 -2,580 Descending Jacksonville Center
03:32PM 30.6733 -81.0739 181° South 443 510 34,700 -1,800 Descending Jacksonville Center
03:33PM 30.5481 -81.0786 182° South 443 510 34,000 -780 Descending Jacksonville Center
03:34PM 30.4228 -81.0836 182° South 448 516 33,200 -900 Descending Jacksonville Center
03:35PM 30.2956 -81.0883 182° South 453 521 32,200 -1,020 Descending Jacksonville Center
03:36PM 30.1681 -81.0906 181° South 459 528 31,200 -1,020 Descending Jacksonville Center
03:37PM 30.0450 -81.0953 182° South 454 522 30,200 -1,080 Descending Jacksonville Center
03:38PM 29.9200 -81.1000 182° South 449 517 29,100 -1,680 Descending Jacksonville Center
03:39PM 29.7989 -81.1000 180° South 444 511 26,900 -2,280 Descending Jacksonville Center
03:40PM 29.6842 -81.1067 183° South 434 499 24,600 -2,340 Descending Jacksonville Center
03:41PM 29.5714 -81.1089 181° South 423 487 22,300 -2,220 Descending Jacksonville Center
03:42PM 29.4628 -81.1108 181° South 405 466 20,300 -2,100 Descending Jacksonville Center
03:43PM 29.3564 -81.1128 181° South 394 453 18,200 -2,100 Descending Jacksonville Center
03:44PM 29.2542 -81.1147 181° South 380 437 16,200 -2,100 Descending Jacksonville Center
03:45PM 29.1539 -81.1044 175° South 375 432 14,100 -1,980 Descending Jacksonville Center
03:46PM 29.0578 -81.0944 175° South 365 420 12,300 -1,080 Descending Jacksonville Center
03:47PM 28.9678 -81.0867 176° South 345 397 12,000 -1,020 Descending Jacksonville Center
03:48PM 28.8883 -81.0714 170° South 317 365 10,300 -1,620 Descending Jacksonville Center
03:49PM 28.8067 -81.0564 171° South 304 350 8,900 -1,260 Descending Jacksonville Center
03:50PM 28.7553 -81.1094 222° Southwest 235 270 7,800 -1,020 Descending Jacksonville Center
03:51PM 28.7356 -81.1878 254° West 227 261 6,900 -1,020 Descending Jacksonville Center
03:52PM 28.6839 -81.2242 212° Southwest 222 255 5,800 -1,140 Descending Jacksonville Center
03:53PM 28.6322 -81.2628 213° Southwest 222 255 4,700 -1,200 Descending Jacksonville Center
03:54PM 28.5833 -81.3000 214° Southwest 190 219 3,400 -1,140 Descending Orlando TRACON
03:55PM 28.5500 -81.3000 180° South 146 168 2,400 -1,020 Descending Orlando TRACON
03:56PM 28.5000 -81.3000 180° South 133 153 1,400 -900 Descending Orlando TRACON
03:57PM 28.4667 -81.3000 180° South 139 160 700 -720 Descending Orlando TRACON
03:59PM 28.4294 -81.3090 180° South  Level Estimated
04:06PM 28.4294 -81.3090 180° South  Level Estimated
04:07PM 28.4294 -81.3090 180° South  Level Estimated
04:08PM 28.4294 -81.3090 180° South  Level Estimated
04:09PM 28.4294 -81.3090 180° South  Level Estimated